sensor_id;sensor_type;location;lat;lon;timestamp;temperature;humidity
45983;DHT22;31711;47.158;7.346;2022-08-19T00:00:25;17.90;99.90
45983;DHT22;31711;47.158;7.346;2022-08-19T00:02:52;17.80;99.90
45983;DHT22;31711;47.158;7.346;2022-08-19T00:05:19;17.80;99.90
45983;DHT22;31711;47.158;7.346;2022-08-19T00:07:45;17.90;99.90
45983;DHT22;31711;47.158;7.346;2022-08-19T00:10:13;17.90;99.90
45983;DHT22;31711;47.158;7.346;2022-08-19T00:12:40;17.90;99.90
45983;DHT22;31711;47.158;7.346;2022-08-19T00:15:09;17.90;99.90
45983;DHT22;31711;47.158;7.346;2022-08-19T00:17:40;17.80;99.90
45983;DHT22;31711;47.158;7.346;2022-08-19T00:20:07;17.90;99.90
45983;DHT22;31711;47.158;7.346;2022-08-19T00:22:34;17.80;99.90
45983;DHT22;31711;47.158;7.346;2022-08-19T00:25:00;17.90;99.90
45983;DHT22;31711;47.158;7.346;2022-08-19T00:27:26;17.90;99.90
45983;DHT22;31711;47.158;7.346;2022-08-19T00:29:52;18.00;99.90
45983;DHT22;31711;47.158;7.346;2022-08-19T00:32:18;18.00;99.90
45983;DHT22;31711;47.158;7.346;2022-08-19T00:34:44;18.00;99.90
45983;DHT22;31711;47.158;7.346;2022-08-19T00:37:10;18.00;99.90
45983;DHT22;31711;47.158;7.346;2022-08-19T00:39:36;17.90;99.90
45983;DHT22;31711;47.158;7.346;2022-08-19T00:42:02;18.00;99.90
45983;DHT22;31711;47.158;7.346;2022-08-19T00:44:29;18.00;99.90
45983;DHT22;31711;47.158;7.346;2022-08-19T00:46:57;18.00;99.90
45983;DHT22;31711;47.158;7.346;2022-08-19T00:49:40;18.00;99.90
45983;DHT22;31711;47.158;7.346;2022-08-19T00:52:12;18.00;99.90
45983;DHT22;31711;47.158;7.346;2022-08-19T00:54:40;17.90;99.90
45983;DHT22;31711;47.158;7.346;2022-08-19T00:57:09;17.80;99.90
45983;DHT22;31711;47.158;7.346;2022-08-19T00:59:39;17.90;99.90
45983;DHT22;31711;47.158;7.346;2022-08-19T01:02:06;17.90;99.90
45983;DHT22;31711;47.158;7.346;2022-08-19T01:04:32;17.90;99.90
45983;DHT22;31711;47.158;7.346;2022-08-19T01:06:59;17.80;99.90
45983;DHT22;31711;47.158;7.346;2022-08-19T01:09:25;17.80;99.90
45983;DHT22;31711;47.158;7.346;2022-08-19T01:11:51;17.90;99.90
45983;DHT22;31711;47.158;7.346;2022-08-19T01:14:17;17.90;99.90
45983;DHT22;31711;47.158;7.346;2022-08-19T01:16:45;17.90;99.90
45983;DHT22;31711;47.158;7.346;2022-08-19T01:19:21;17.90;99.90
45983;DHT22;31711;47.158;7.346;2022-08-19T01:22:20;18.00;99.90
45983;DHT22;31711;47.158;7.346;2022-08-19T01:24:47;18.00;99.90
45983;DHT22;31711;47.158;7.346;2022-08-19T01:27:13;17.90;99.90
45983;DHT22;31711;47.158;7.346;2022-08-19T01:29:41;17.80;99.90
45983;DHT22;31711;47.158;7.346;2022-08-19T01:32:10;17.70;99.90
45983;DHT22;31711;47.158;7.346;2022-08-19T01:34:37;17.70;99.90
45983;DHT22;31711;47.158;7.346;2022-08-19T01:37:08;17.70;99.90
45983;DHT22;31711;47.158;7.346;2022-08-19T01:39:38;17.80;99.90
45983;DHT22;31711;47.158;7.346;2022-08-19T01:42:05;17.80;99.90
45983;DHT22;31711;47.158;7.346;2022-08-19T01:44:33;17.70;99.90
45983;DHT22;31711;47.158;7.346;2022-08-19T01:46:59;17.60;99.90
45983;DHT22;31711;47.158;7.346;2022-08-19T01:49:25;17.60;99.90
45983;DHT22;31711;47.158;7.346;2022-08-19T01:51:53;17.60;99.90
45983;DHT22;31711;47.158;7.346;2022-08-19T01:54:21;17.60;99.90
45983;DHT22;31711;47.158;7.346;2022-08-19T01:56:47;17.70;99.90
45983;DHT22;31711;47.158;7.346;2022-08-19T01:59:17;17.70;99.90
45983;DHT22;31711;47.158;7.346;2022-08-19T02:01:44;17.80;99.90
45983;DHT22;31711;47.158;7.346;2022-08-19T02:04:10;17.80;99.90
45983;DHT22;31711;47.158;7.346;2022-08-19T02:06:37;17.90;99.90
45983;DHT22;31711;47.158;7.346;2022-08-19T02:09:04;17.90;99.90
45983;DHT22;31711;47.158;7.346;2022-08-19T02:11:33;17.80;99.90
45983;DHT22;31711;47.158;7.346;2022-08-19T02:14:01;17.90;99.90
45983;DHT22;31711;47.158;7.346;2022-08-19T02:16:28;17.90;99.90
45983;DHT22;31711;47.158;7.346;2022-08-19T02:18:54;17.90;99.90
45983;DHT22;31711;47.158;7.346;2022-08-19T02:21:21;18.00;99.90
45983;DHT22;31711;47.158;7.346;2022-08-19T02:23:49;18.00;99.90
45983;DHT22;31711;47.158;7.346;2022-08-19T02:26:16;18.00;99.90
45983;DHT22;31711;47.158;7.346;2022-08-19T02:28:42;18.00;99.90
45983;DHT22;31711;47.158;7.346;2022-08-19T02:31:17;17.80;99.90
45983;DHT22;31711;47.158;7.346;2022-08-19T02:33:45;17.80;99.90
45983;DHT22;31711;47.158;7.346;2022-08-19T02:36:12;17.90;99.90
45983;DHT22;31711;47.158;7.346;2022-08-19T02:38:39;17.90;99.90
45983;DHT22;31711;47.158;7.346;2022-08-19T02:41:12;18.00;99.90
45983;DHT22;31711;47.158;7.346;2022-08-19T02:43:39;18.00;99.90
45983;DHT22;31711;47.158;7.346;2022-08-19T02:46:24;18.00;99.90
45983;DHT22;31711;47.158;7.346;2022-08-19T02:48:56;17.90;99.90
45983;DHT22;31711;47.158;7.346;2022-08-19T02:51:29;17.80;99.90
45983;DHT22;31711;47.158;7.346;2022-08-19T02:53:56;17.80;99.90
45983;DHT22;31711;47.158;7.346;2022-08-19T02:56:22;17.90;99.90
45983;DHT22;31711;47.158;7.346;2022-08-19T02:58:50;17.80;99.90
45983;DHT22;31711;47.158;7.346;2022-08-19T03:01:25;17.60;99.90
45983;DHT22;31711;47.158;7.346;2022-08-19T03:03:53;17.70;99.90
45983;DHT22;31711;47.158;7.346;2022-08-19T03:06:19;17.60;99.90
45983;DHT22;31711;47.158;7.346;2022-08-19T03:08:46;17.80;99.90
45983;DHT22;31711;47.158;7.346;2022-08-19T03:11:15;17.80;99.90
45983;DHT22;31711;47.158;7.346;2022-08-19T03:13:41;17.80;99.90
45983;DHT22;31711;47.158;7.346;2022-08-19T03:16:09;17.90;99.90
45983;DHT22;31711;47.158;7.346;2022-08-19T03:18:35;17.90;99.90
45983;DHT22;31711;47.158;7.346;2022-08-19T03:21:01;17.90;99.90
45983;DHT22;31711;47.158;7.346;2022-08-19T03:23:27;17.90;99.90
45983;DHT22;31711;47.158;7.346;2022-08-19T03:25:53;17.80;99.90
45983;DHT22;31711;47.158;7.346;2022-08-19T03:28:20;17.60;99.90
45983;DHT22;31711;47.158;7.346;2022-08-19T03:31:04;17.60;99.90
45983;DHT22;31711;47.158;7.346;2022-08-19T03:33:31;17.70;99.90
45983;DHT22;31711;47.158;7.346;2022-08-19T03:38:38;17.50;99.90
45983;DHT22;31711;47.158;7.346;2022-08-19T03:41:20;17.50;99.90
45983;DHT22;31711;47.158;7.346;2022-08-19T03:43:46;17.60;99.90
45983;DHT22;31711;47.158;7.346;2022-08-19T03:46:16;17.40;99.90
45983;DHT22;31711;47.158;7.346;2022-08-19T03:48:43;17.40;99.90
45983;DHT22;31711;47.158;7.346;2022-08-19T03:51:18;17.40;99.90
45983;DHT22;31711;47.158;7.346;2022-08-19T03:53:44;17.30;99.90
45983;DHT22;31711;47.158;7.346;2022-08-19T03:56:10;17.30;99.90
45983;DHT22;31711;47.158;7.346;2022-08-19T03:58:37;17.20;99.90
45983;DHT22;31711;47.158;7.346;2022-08-19T04:01:07;17.20;99.90
45983;DHT22;31711;47.158;7.346;2022-08-19T04:03:34;17.20;99.90
45983;DHT22;31711;47.158;7.346;2022-08-19T04:06:30;17.30;99.90
45983;DHT22;31711;47.158;7.346;2022-08-19T04:08:57;17.30;99.90
45983;DHT22;31711;47.158;7.346;2022-08-19T04:11:30;17.20;99.90
45983;DHT22;31711;47.158;7.346;2022-08-19T04:13:57;17.20;99.90
45983;DHT22;31711;47.158;7.346;2022-08-19T04:16:24;17.20;99.90
45983;DHT22;31711;47.158;7.346;2022-08-19T04:18:55;17.20;99.90
45983;DHT22;31711;47.158;7.346;2022-08-19T04:21:25;17.10;99.90
45983;DHT22;31711;47.158;7.346;2022-08-19T04:23:52;17.10;99.90
45983;DHT22;31711;47.158;7.346;2022-08-19T04:26:26;17.10;99.90
45983;DHT22;31711;47.158;7.346;2022-08-19T04:28:52;17.10;99.90
45983;DHT22;31711;47.158;7.346;2022-08-19T04:31:21;17.10;99.90
45983;DHT22;31711;47.158;7.346;2022-08-19T04:33:48;17.10;99.90
45983;DHT22;31711;47.158;7.346;2022-08-19T04:36:19;17.10;99.90
45983;DHT22;31711;47.158;7.346;2022-08-19T04:38:49;17.20;99.90
45983;DHT22;31711;47.158;7.346;2022-08-19T04:41:16;17.10;99.90
45983;DHT22;31711;47.158;7.346;2022-08-19T04:44:01;17.10;99.90
45983;DHT22;31711;47.158;7.346;2022-08-19T04:46:29;17.10;99.90
45983;DHT22;31711;47.158;7.346;2022-08-19T04:48:59;17.00;99.90
45983;DHT22;31711;47.158;7.346;2022-08-19T04:51:26;17.10;99.90
45983;DHT22;31711;47.158;7.346;2022-08-19T04:53:52;17.20;99.90
45983;DHT22;31711;47.158;7.346;2022-08-19T04:56:20;17.10;99.90
45983;DHT22;31711;47.158;7.346;2022-08-19T04:58:53;17.00;99.90
45983;DHT22;31711;47.158;7.346;2022-08-19T05:01:24;17.10;99.90
45983;DHT22;31711;47.158;7.346;2022-08-19T05:03:51;17.20;99.90
45983;DHT22;31711;47.158;7.346;2022-08-19T05:06:20;17.20;99.90
45983;DHT22;31711;47.158;7.346;2022-08-19T05:08:47;17.30;99.90
45983;DHT22;31711;47.158;7.346;2022-08-19T05:13:42;17.40;99.90
45983;DHT22;31711;47.158;7.346;2022-08-19T05:16:11;17.40;99.90
45983;DHT22;31711;47.158;7.346;2022-08-19T05:18:37;17.40;99.90
45983;DHT22;31711;47.158;7.346;2022-08-19T05:21:22;17.30;99.90
45983;DHT22;31711;47.158;7.346;2022-08-19T05:24:07;17.30;99.90
45983;DHT22;31711;47.158;7.346;2022-08-19T05:26:43;17.30;99.90
45983;DHT22;31711;47.158;7.346;2022-08-19T05:29:14;17.30;99.90
45983;DHT22;31711;47.158;7.346;2022-08-19T05:31:40;17.20;99.90
45983;DHT22;31711;47.158;7.346;2022-08-19T05:34:07;17.20;99.90
45983;DHT22;31711;47.158;7.346;2022-08-19T05:36:37;17.30;99.90
45983;DHT22;31711;47.158;7.346;2022-08-19T05:39:15;17.20;99.90
45983;DHT22;31711;47.158;7.346;2022-08-19T05:41:44;17.30;99.90
45983;DHT22;31711;47.158;7.346;2022-08-19T05:44:10;17.30;99.90
45983;DHT22;31711;47.158;7.346;2022-08-19T05:46:37;17.40;99.90
45983;DHT22;31711;47.158;7.346;2022-08-19T05:49:05;17.40;99.90
45983;DHT22;31711;47.158;7.346;2022-08-19T05:51:33;17.30;99.90
45983;DHT22;31711;47.158;7.346;2022-08-19T05:54:00;17.20;99.90
45983;DHT22;31711;47.158;7.346;2022-08-19T05:56:26;17.20;99.90
45983;DHT22;31711;47.158;7.346;2022-08-19T05:58:53;17.30;99.90
45983;DHT22;31711;47.158;7.346;2022-08-19T06:01:20;17.30;99.90
45983;DHT22;31711;47.158;7.346;2022-08-19T06:03:46;17.30;99.90
45983;DHT22;31711;47.158;7.346;2022-08-19T06:06:15;17.30;99.90
45983;DHT22;31711;47.158;7.346;2022-08-19T06:08:42;17.40;99.90
45983;DHT22;31711;47.158;7.346;2022-08-19T06:11:28;17.40;99.90
45983;DHT22;31711;47.158;7.346;2022-08-19T06:14:02;17.40;99.90
45983;DHT22;31711;47.158;7.346;2022-08-19T06:16:29;17.40;99.90
45983;DHT22;31711;47.158;7.346;2022-08-19T06:18:59;17.50;99.90
45983;DHT22;31711;47.158;7.346;2022-08-19T06:21:27;17.50;99.90
45983;DHT22;31711;47.158;7.346;2022-08-19T06:23:54;17.50;99.90
45983;DHT22;31711;47.158;7.346;2022-08-19T06:26:22;17.50;99.90
45983;DHT22;31711;47.158;7.346;2022-08-19T06:28:50;17.60;99.90
45983;DHT22;31711;47.158;7.346;2022-08-19T06:31:22;17.60;99.90
45983;DHT22;31711;47.158;7.346;2022-08-19T06:33:49;17.50;99.90
45983;DHT22;31711;47.158;7.346;2022-08-19T06:36:24;17.50;99.90
45983;DHT22;31711;47.158;7.346;2022-08-19T06:38:54;17.50;99.90
45983;DHT22;31711;47.158;7.346;2022-08-19T06:41:20;17.50;99.90
45983;DHT22;31711;47.158;7.346;2022-08-19T06:43:46;17.40;99.90
45983;DHT22;31711;47.158;7.346;2022-08-19T06:46:14;17.40;99.90
45983;DHT22;31711;47.158;7.346;2022-08-19T06:48:41;17.50;99.90
45983;DHT22;31711;47.158;7.346;2022-08-19T06:51:07;17.40;99.90
45983;DHT22;31711;47.158;7.346;2022-08-19T06:53:33;17.50;99.90
45983;DHT22;31711;47.158;7.346;2022-08-19T06:56:00;17.50;99.90
45983;DHT22;31711;47.158;7.346;2022-08-19T06:58:30;17.60;99.90
45983;DHT22;31711;47.158;7.346;2022-08-19T07:01:04;17.50;99.90
45983;DHT22;31711;47.158;7.346;2022-08-19T07:03:32;17.50;99.90
45983;DHT22;31711;47.158;7.346;2022-08-19T07:06:06;17.50;99.90
45983;DHT22;31711;47.158;7.346;2022-08-19T07:08:33;17.50;99.90
45983;DHT22;31711;47.158;7.346;2022-08-19T07:10:59;17.60;99.90
45983;DHT22;31711;47.158;7.346;2022-08-19T07:13:26;17.60;99.90
45983;DHT22;31711;47.158;7.346;2022-08-19T07:15:52;17.50;99.90
45983;DHT22;31711;47.158;7.346;2022-08-19T07:18:19;17.60;99.90
45983;DHT22;31711;47.158;7.346;2022-08-19T07:20:47;17.60;99.90
45983;DHT22;31711;47.158;7.346;2022-08-19T07:23:13;17.70;99.90
45983;DHT22;31711;47.158;7.346;2022-08-19T07:25:39;17.70;99.90
45983;DHT22;31711;47.158;7.346;2022-08-19T07:28:05;17.80;99.90
45983;DHT22;31711;47.158;7.346;2022-08-19T07:30:36;17.80;99.90
45983;DHT22;31711;47.158;7.346;2022-08-19T07:33:02;17.80;99.90
45983;DHT22;31711;47.158;7.346;2022-08-19T07:35:29;17.80;99.90
45983;DHT22;31711;47.158;7.346;2022-08-19T07:37:54;17.90;99.90
45983;DHT22;31711;47.158;7.346;2022-08-19T07:40:20;17.90;99.90
45983;DHT22;31711;47.158;7.346;2022-08-19T07:42:46;17.90;99.90
45983;DHT22;31711;47.158;7.346;2022-08-19T07:45:12;17.90;99.90
45983;DHT22;31711;47.158;7.346;2022-08-19T07:47:38;17.90;99.90
45983;DHT22;31711;47.158;7.346;2022-08-19T07:50:09;17.90;99.90
45983;DHT22;31711;47.158;7.346;2022-08-19T07:52:37;17.90;99.90
45983;DHT22;31711;47.158;7.346;2022-08-19T07:55:06;17.90;99.90
45983;DHT22;31711;47.158;7.346;2022-08-19T07:57:33;17.90;99.90
45983;DHT22;31711;47.158;7.346;2022-08-19T07:59:59;18.00;99.90
45983;DHT22;31711;47.158;7.346;2022-08-19T08:02:25;18.10;99.90
45983;DHT22;31711;47.158;7.346;2022-08-19T08:04:51;18.10;99.90
45983;DHT22;31711;47.158;7.346;2022-08-19T08:07:35;18.30;99.90
45983;DHT22;31711;47.158;7.346;2022-08-19T08:10:20;18.40;99.90
45983;DHT22;31711;47.158;7.346;2022-08-19T08:12:46;18.40;99.90
45983;DHT22;31711;47.158;7.346;2022-08-19T08:15:14;18.30;99.90
45983;DHT22;31711;47.158;7.346;2022-08-19T08:17:44;18.30;99.90
45983;DHT22;31711;47.158;7.346;2022-08-19T08:20:12;18.30;99.90
45983;DHT22;31711;47.158;7.346;2022-08-19T08:22:43;18.50;99.90
45983;DHT22;31711;47.158;7.346;2022-08-19T08:25:28;18.50;99.90
45983;DHT22;31711;47.158;7.346;2022-08-19T08:27:55;18.50;99.90
45983;DHT22;31711;47.158;7.346;2022-08-19T08:30:24;18.40;99.90
45983;DHT22;31711;47.158;7.346;2022-08-19T08:32:51;18.40;99.90
45983;DHT22;31711;47.158;7.346;2022-08-19T08:35:20;18.40;99.90
45983;DHT22;31711;47.158;7.346;2022-08-19T08:37:47;18.40;99.90
45983;DHT22;31711;47.158;7.346;2022-08-19T08:40:39;18.50;99.90
45983;DHT22;31711;47.158;7.346;2022-08-19T08:45:49;18.50;99.90
45983;DHT22;31711;47.158;7.346;2022-08-19T08:48:38;18.70;99.90
45983;DHT22;31711;47.158;7.346;2022-08-19T08:51:12;18.60;99.90
45983;DHT22;31711;47.158;7.346;2022-08-19T08:53:41;18.60;99.90
45983;DHT22;31711;47.158;7.346;2022-08-19T08:56:09;18.50;99.90
45983;DHT22;31711;47.158;7.346;2022-08-19T08:58:56;18.50;99.90
45983;DHT22;31711;47.158;7.346;2022-08-19T09:01:22;18.50;99.90
45983;DHT22;31711;47.158;7.346;2022-08-19T09:03:48;18.50;99.90
45983;DHT22;31711;47.158;7.346;2022-08-19T09:09:05;18.60;99.90
45983;DHT22;31711;47.158;7.346;2022-08-19T09:15:10;18.80;99.90
45983;DHT22;31711;47.158;7.346;2022-08-19T09:17:38;18.80;99.90
45983;DHT22;31711;47.158;7.346;2022-08-19T09:22:37;18.90;99.90
45983;DHT22;31711;47.158;7.346;2022-08-19T09:25:06;18.80;99.90
45983;DHT22;31711;47.158;7.346;2022-08-19T09:27:32;18.80;99.90
45983;DHT22;31711;47.158;7.346;2022-08-19T09:29:58;18.90;99.90
45983;DHT22;31711;47.158;7.346;2022-08-19T09:32:24;19.00;99.90
45983;DHT22;31711;47.158;7.346;2022-08-19T09:34:52;19.00;99.90
45983;DHT22;31711;47.158;7.346;2022-08-19T09:37:21;19.00;99.90
45983;DHT22;31711;47.158;7.346;2022-08-19T09:39:48;19.30;99.90
45983;DHT22;31711;47.158;7.346;2022-08-19T09:42:13;19.30;99.90
45983;DHT22;31711;47.158;7.346;2022-08-19T09:44:41;19.40;99.90
45983;DHT22;31711;47.158;7.346;2022-08-19T09:47:10;19.40;99.90
45983;DHT22;31711;47.158;7.346;2022-08-19T09:49:37;19.50;99.90
45983;DHT22;31711;47.158;7.346;2022-08-19T09:52:06;19.70;99.90
45983;DHT22;31711;47.158;7.346;2022-08-19T09:54:33;19.80;99.90
45983;DHT22;31711;47.158;7.346;2022-08-19T09:57:00;19.60;99.90
45983;DHT22;31711;47.158;7.346;2022-08-19T09:59:27;19.60;99.90
45983;DHT22;31711;47.158;7.346;2022-08-19T10:01:53;19.60;99.90
45983;DHT22;31711;47.158;7.346;2022-08-19T10:04:19;19.70;99.90
45983;DHT22;31711;47.158;7.346;2022-08-19T10:06:48;19.70;99.90
45983;DHT22;31711;47.158;7.346;2022-08-19T10:09:17;19.80;99.90
45983;DHT22;31711;47.158;7.346;2022-08-19T10:11:44;20.00;99.90
45983;DHT22;31711;47.158;7.346;2022-08-19T10:14:15;19.80;99.90
45983;DHT22;31711;47.158;7.346;2022-08-19T10:16:42;19.80;99.90
45983;DHT22;31711;47.158;7.346;2022-08-19T10:19:09;20.00;99.90
45983;DHT22;31711;47.158;7.346;2022-08-19T10:21:35;20.10;99.90
45983;DHT22;31711;47.158;7.346;2022-08-19T10:24:03;20.30;99.90
45983;DHT22;31711;47.158;7.346;2022-08-19T10:26:34;20.50;99.90
45983;DHT22;31711;47.158;7.346;2022-08-19T10:29:01;20.60;99.90
45983;DHT22;31711;47.158;7.346;2022-08-19T10:31:30;20.90;99.90
45983;DHT22;31711;47.158;7.346;2022-08-19T10:33:59;20.90;99.90
45983;DHT22;31711;47.158;7.346;2022-08-19T10:36:33;20.80;99.90
45983;DHT22;31711;47.158;7.346;2022-08-19T10:39:05;20.60;99.90
45983;DHT22;31711;47.158;7.346;2022-08-19T10:41:33;20.60;99.90
45983;DHT22;31711;47.158;7.346;2022-08-19T10:44:05;20.20;99.90
45983;DHT22;31711;47.158;7.346;2022-08-19T10:46:34;20.10;99.90
45983;DHT22;31711;47.158;7.346;2022-08-19T10:49:02;19.90;99.90
45983;DHT22;31711;47.158;7.346;2022-08-19T10:51:28;19.90;99.90
45983;DHT22;31711;47.158;7.346;2022-08-19T10:54:13;19.90;99.90
45983;DHT22;31711;47.158;7.346;2022-08-19T10:56:39;19.90;99.90
45983;DHT22;31711;47.158;7.346;2022-08-19T10:59:22;19.80;99.90
45983;DHT22;31711;47.158;7.346;2022-08-19T11:01:50;19.70;99.90
45983;DHT22;31711;47.158;7.346;2022-08-19T11:04:18;19.80;99.90
45983;DHT22;31711;47.158;7.346;2022-08-19T11:06:46;20.00;99.90
45983;DHT22;31711;47.158;7.346;2022-08-19T11:09:22;20.10;99.90
45983;DHT22;31711;47.158;7.346;2022-08-19T11:11:52;20.60;99.90
45983;DHT22;31711;47.158;7.346;2022-08-19T11:14:19;21.00;99.90
45983;DHT22;31711;47.158;7.346;2022-08-19T11:16:48;21.10;99.90
45983;DHT22;31711;47.158;7.346;2022-08-19T11:19:15;21.20;99.90
45983;DHT22;31711;47.158;7.346;2022-08-19T11:21:47;21.30;99.90
45983;DHT22;31711;47.158;7.346;2022-08-19T11:24:16;21.50;99.90
45983;DHT22;31711;47.158;7.346;2022-08-19T11:26:44;21.80;99.90
45983;DHT22;31711;47.158;7.346;2022-08-19T11:29:12;21.80;99.90
45983;DHT22;31711;47.158;7.346;2022-08-19T11:31:41;22.00;99.90
45983;DHT22;31711;47.158;7.346;2022-08-19T11:34:10;22.00;99.90
45983;DHT22;31711;47.158;7.346;2022-08-19T11:36:39;22.20;99.90
45983;DHT22;31711;47.158;7.346;2022-08-19T11:39:10;22.20;99.90
45983;DHT22;31711;47.158;7.346;2022-08-19T11:41:37;21.90;99.90
45983;DHT22;31711;47.158;7.346;2022-08-19T11:44:04;22.00;99.90
45983;DHT22;31711;47.158;7.346;2022-08-19T11:46:30;22.00;99.90
45983;DHT22;31711;47.158;7.346;2022-08-19T11:48:57;22.10;99.90
45983;DHT22;31711;47.158;7.346;2022-08-19T11:51:24;22.30;99.90
45983;DHT22;31711;47.158;7.346;2022-08-19T11:53:52;22.20;99.90
45983;DHT22;31711;47.158;7.346;2022-08-19T11:56:19;22.10;99.90
45983;DHT22;31711;47.158;7.346;2022-08-19T11:58:45;22.20;99.90
45983;DHT22;31711;47.158;7.346;2022-08-19T12:01:15;22.30;99.90
45983;DHT22;31711;47.158;7.346;2022-08-19T12:03:46;22.20;99.90
45983;DHT22;31711;47.158;7.346;2022-08-19T12:06:15;21.90;99.90
45983;DHT22;31711;47.158;7.346;2022-08-19T12:08:43;21.60;99.90
45983;DHT22;31711;47.158;7.346;2022-08-19T12:11:10;21.60;99.90
45983;DHT22;31711;47.158;7.346;2022-08-19T12:13:37;21.40;99.90
45983;DHT22;31711;47.158;7.346;2022-08-19T12:16:24;21.40;99.90
45983;DHT22;31711;47.158;7.346;2022-08-19T12:18:51;21.30;99.90
45983;DHT22;31711;47.158;7.346;2022-08-19T12:21:19;21.20;99.90
45983;DHT22;31711;47.158;7.346;2022-08-19T12:23:48;21.20;99.90
45983;DHT22;31711;47.158;7.346;2022-08-19T12:26:15;21.20;99.90
45983;DHT22;31711;47.158;7.346;2022-08-19T12:28:42;21.10;99.90
45983;DHT22;31711;47.158;7.346;2022-08-19T12:31:08;21.10;99.90
45983;DHT22;31711;47.158;7.346;2022-08-19T12:33:38;21.20;99.90
45983;DHT22;31711;47.158;7.346;2022-08-19T12:36:06;21.20;99.90
45983;DHT22;31711;47.158;7.346;2022-08-19T12:38:33;21.40;99.90
45983;DHT22;31711;47.158;7.346;2022-08-19T12:41:03;21.20;99.90
45983;DHT22;31711;47.158;7.346;2022-08-19T12:43:35;21.20;99.90
45983;DHT22;31711;47.158;7.346;2022-08-19T12:46:03;21.30;99.90
45983;DHT22;31711;47.158;7.346;2022-08-19T12:48:30;21.20;99.90
45983;DHT22;31711;47.158;7.346;2022-08-19T12:50:56;21.10;99.90
45983;DHT22;31711;47.158;7.346;2022-08-19T12:53:22;21.10;99.90
45983;DHT22;31711;47.158;7.346;2022-08-19T12:55:55;21.10;99.90
45983;DHT22;31711;47.158;7.346;2022-08-19T12:58:22;21.10;99.90
45983;DHT22;31711;47.158;7.346;2022-08-19T13:00:48;21.10;99.90
45983;DHT22;31711;47.158;7.346;2022-08-19T13:03:14;21.10;99.90
45983;DHT22;31711;47.158;7.346;2022-08-19T13:05:41;21.10;99.90
45983;DHT22;31711;47.158;7.346;2022-08-19T13:08:07;21.10;99.90
45983;DHT22;31711;47.158;7.346;2022-08-19T13:10:35;21.20;99.90
45983;DHT22;31711;47.158;7.346;2022-08-19T13:13:03;21.30;99.90
45983;DHT22;31711;47.158;7.346;2022-08-19T13:15:34;21.10;99.90
45983;DHT22;31711;47.158;7.346;2022-08-19T13:18:00;21.00;99.90
45983;DHT22;31711;47.158;7.346;2022-08-19T13:20:26;21.00;99.90
45983;DHT22;31711;47.158;7.346;2022-08-19T13:22:52;21.10;99.90
45983;DHT22;31711;47.158;7.346;2022-08-19T13:25:18;21.00;99.90
45983;DHT22;31711;47.158;7.346;2022-08-19T13:27:46;21.10;99.90
45983;DHT22;31711;47.158;7.346;2022-08-19T13:30:14;21.20;99.90
45983;DHT22;31711;47.158;7.346;2022-08-19T13:32:59;21.20;99.90
45983;DHT22;31711;47.158;7.346;2022-08-19T13:38:10;21.20;99.90
45983;DHT22;31711;47.158;7.346;2022-08-19T13:40:37;21.10;99.90
45983;DHT22;31711;47.158;7.346;2022-08-19T13:43:04;21.10;99.90
45983;DHT22;31711;47.158;7.346;2022-08-19T13:45:31;21.30;99.90
45983;DHT22;31711;47.158;7.346;2022-08-19T13:48:06;21.40;99.90
45983;DHT22;31711;47.158;7.346;2022-08-19T13:50:37;21.60;99.90
45983;DHT22;31711;47.158;7.346;2022-08-19T13:53:04;21.80;99.90
45983;DHT22;31711;47.158;7.346;2022-08-19T13:55:30;22.00;99.90
45983;DHT22;31711;47.158;7.346;2022-08-19T13:57:59;22.20;99.90
45983;DHT22;31711;47.158;7.346;2022-08-19T14:00:33;22.30;99.90
45983;DHT22;31711;47.158;7.346;2022-08-19T14:02:59;22.40;99.90
45983;DHT22;31711;47.158;7.346;2022-08-19T14:05:27;22.40;99.90
45983;DHT22;31711;47.158;7.346;2022-08-19T14:07:54;22.50;99.90
45983;DHT22;31711;47.158;7.346;2022-08-19T14:10:21;22.40;99.90
45983;DHT22;31711;47.158;7.346;2022-08-19T14:12:49;22.30;99.90
45983;DHT22;31711;47.158;7.346;2022-08-19T14:15:17;22.40;99.90
45983;DHT22;31711;47.158;7.346;2022-08-19T14:17:44;22.50;99.90
45983;DHT22;31711;47.158;7.346;2022-08-19T14:20:13;22.60;99.90
45983;DHT22;31711;47.158;7.346;2022-08-19T14:22:41;22.50;99.90
45983;DHT22;31711;47.158;7.346;2022-08-19T14:25:10;22.20;99.90
45983;DHT22;31711;47.158;7.346;2022-08-19T14:27:38;22.20;99.90
45983;DHT22;31711;47.158;7.346;2022-08-19T14:30:08;22.10;99.90
45983;DHT22;31711;47.158;7.346;2022-08-19T14:32:34;22.00;99.90
45983;DHT22;31711;47.158;7.346;2022-08-19T14:35:01;21.70;99.90
45983;DHT22;31711;47.158;7.346;2022-08-19T14:37:27;21.60;99.90
45983;DHT22;31711;47.158;7.346;2022-08-19T14:39:56;21.40;99.90
45983;DHT22;31711;47.158;7.346;2022-08-19T14:42:22;21.20;99.90
45983;DHT22;31711;47.158;7.346;2022-08-19T14:44:48;21.00;99.90
45983;DHT22;31711;47.158;7.346;2022-08-19T14:47:17;21.10;99.90
45983;DHT22;31711;47.158;7.346;2022-08-19T14:49:43;21.10;99.90
45983;DHT22;31711;47.158;7.346;2022-08-19T14:52:09;21.10;99.90
45983;DHT22;31711;47.158;7.346;2022-08-19T14:54:35;21.10;99.90
45983;DHT22;31711;47.158;7.346;2022-08-19T14:57:01;21.00;99.90
45983;DHT22;31711;47.158;7.346;2022-08-19T14:59:27;20.80;99.90
45983;DHT22;31711;47.158;7.346;2022-08-19T15:01:54;20.80;99.90
45983;DHT22;31711;47.158;7.346;2022-08-19T15:04:19;20.70;99.90
45983;DHT22;31711;47.158;7.346;2022-08-19T15:06:45;20.70;99.90
45983;DHT22;31711;47.158;7.346;2022-08-19T15:09:11;20.70;99.90
45983;DHT22;31711;47.158;7.346;2022-08-19T15:11:37;20.60;99.90
45983;DHT22;31711;47.158;7.346;2022-08-19T15:14:04;20.70;99.90
45983;DHT22;31711;47.158;7.346;2022-08-19T15:16:32;20.50;99.90
45983;DHT22;31711;47.158;7.346;2022-08-19T15:18:58;20.70;99.90
45983;DHT22;31711;47.158;7.346;2022-08-19T15:21:26;20.80;99.90
45983;DHT22;31711;47.158;7.346;2022-08-19T15:23:52;20.90;99.90
45983;DHT22;31711;47.158;7.346;2022-08-19T15:26:19;21.00;99.90
45983;DHT22;31711;47.158;7.346;2022-08-19T15:28:46;21.10;99.90
45983;DHT22;31711;47.158;7.346;2022-08-19T15:31:15;21.00;99.90
45983;DHT22;31711;47.158;7.346;2022-08-19T15:33:41;20.90;99.90
45983;DHT22;31711;47.158;7.346;2022-08-19T15:36:08;20.90;99.90
45983;DHT22;31711;47.158;7.346;2022-08-19T15:38:34;20.80;99.90
45983;DHT22;31711;47.158;7.346;2022-08-19T15:41:03;20.80;99.90
45983;DHT22;31711;47.158;7.346;2022-08-19T15:43:54;20.70;99.90
45983;DHT22;31711;47.158;7.346;2022-08-19T15:46:23;20.70;99.90
45983;DHT22;31711;47.158;7.346;2022-08-19T15:48:51;20.50;99.90
45983;DHT22;31711;47.158;7.346;2022-08-19T15:51:18;20.30;99.90
45983;DHT22;31711;47.158;7.346;2022-08-19T15:53:44;20.20;99.90
45983;DHT22;31711;47.158;7.346;2022-08-19T15:56:10;20.30;99.90
45983;DHT22;31711;47.158;7.346;2022-08-19T15:58:37;20.30;99.90